Time;durP1;ratioP1;P1;durP2;ratioP2;P2;SDS_P1;SDS_P2;PMS_P1;PMS_P2;Temp;Humidity;BMP_temperature;BMP_pressure;BME280_temperature;BME280_humidity;BME280_pressure;Samples;Min_cycle;Max_cycle;Signal;HPM_P1;HPM_P2
2023/09/28 00:02:49;;;;;;;4.65;4.25;;;12.20;99.90;;;;;;5039905;28;20098;-32
2023/09/28 00:05:16;;;;;;;4.78;4.35;;;12.20;99.90;;;;;;5044891;28;20459;-34
2023/09/28 00:07:43;;;;;;;5.25;4.68;;;12.20;99.90;;;;;;5043008;28;20485;-39
2023/09/28 00:10:12;;;;;;;5.88;4.65;;;12.20;99.90;;;;;;5044165;28;20029;-35
2023/09/28 00:12:45;;;;;;;8.15;4.70;;;12.30;99.90;;;;;;5042047;28;20033;-37
2023/09/28 00:15:11;;;;;;;5.25;4.78;;;12.30;99.90;;;;;;5042841;28;20040;-34
2023/09/28 00:17:38;;;;;;;5.72;5.10;;;12.30;99.90;;;;;;5041401;28;20024;-36
2023/09/28 00:20:13;;;;;;;6.28;5.22;;;12.30;99.90;;;;;;5043167;28;20036;-39
2023/09/28 00:22:43;;;;;;;6.05;5.20;;;12.30;99.90;;;;;;5040592;28;20017;-37
2023/09/28 00:25:11;;;;;;;6.53;4.82;;;12.30;99.90;;;;;;5043650;28;20041;-33
2023/09/28 00:27:44;;;;;;;11.68;4.70;;;12.20;99.90;;;;;;5043366;28;20437;-37
2023/09/28 00:30:15;;;;;;;8.57;4.63;;;12.00;99.90;;;;;;5042897;28;20036;-40
2023/09/28 00:32:44;;;;;;;3.97;3.60;;;11.90;99.90;;;;;;5041525;28;20033;-41
2023/09/28 00:35:09;;;;;;;4.95;4.07;;;11.80;99.90;;;;;;5043535;28;20037;-35
2023/09/28 00:37:35;;;;;;;4.15;3.75;;;11.80;99.90;;;;;;5045490;28;20557;-39
2023/09/28 00:40:08;;;;;;;6.85;4.40;;;11.80;99.90;;;;;;5043331;28;20449;-41
2023/09/28 00:42:33;;;;;;;5.53;4.78;;;11.80;99.90;;;;;;5041493;28;20391;-37
2023/09/28 00:44:59;;;;;;;6.55;4.50;;;11.80;99.90;;;;;;5044245;28;20041;-41
2023/09/28 00:47:25;;;;;;;6.20;4.18;;;11.80;99.90;;;;;;5043534;28;20025;-31
2023/09/28 00:49:52;;;;;;;5.75;4.65;;;11.90;99.90;;;;;;5043906;28;20028;-31
2023/09/28 00:52:18;;;;;;;5.38;4.55;;;11.90;99.90;;;;;;5042252;28;20049;-31
2023/09/28 00:54:49;;;;;;;5.65;4.80;;;11.80;99.90;;;;;;5045825;28;20504;-30
2023/09/28 00:57:15;;;;;;;5.72;4.45;;;11.80;99.90;;;;;;5044438;28;20102;-34
2023/09/28 00:59:41;;;;;;;5.18;4.60;;;11.80;99.90;;;;;;5044836;28;20033;-32
2023/09/28 01:02:08;;;;;;;5.07;4.03;;;11.80;99.90;;;;;;5046717;28;20083;-34
2023/09/28 01:04:35;;;;;;;4.22;3.83;;;11.40;99.90;;;;;;5042403;28;20109;-35
2023/09/28 01:07:01;;;;;;;4.40;3.80;;;11.20;99.90;;;;;;5047395;28;20067;-29
2023/09/28 01:09:27;;;;;;;5.45;3.88;;;11.00;99.90;;;;;;5045164;28;20028;-35
2023/09/28 01:11:53;;;;;;;4.50;4.10;;;11.00;99.90;;;;;;5043399;28;20024;-30
2023/09/28 01:14:21;;;;;;;4.10;3.70;;;10.90;99.90;;;;;;5046130;28;20029;-31
2023/09/28 01:16:47;;;;;;;3.50;3.20;;;10.90;99.90;;;;;;5049705;28;20961;-32
2023/09/28 01:19:13;;;;;;;3.72;3.42;;;10.80;99.90;;;;;;5050344;28;20021;-30
2023/09/28 01:21:39;;;;;;;3.58;3.28;;;10.80;99.90;;;;;;5050626;28;20494;-35
2023/09/28 01:24:06;;;;;;;3.40;3.20;;;10.90;99.90;;;;;;5046574;28;20548;-32
2023/09/28 01:26:32;;;;;;;3.33;3.03;;;10.90;99.90;;;;;;5045863;28;20509;-34
2023/09/28 01:28:58;;;;;;;3.47;3.17;;;10.90;99.90;;;;;;5047866;28;20025;-30
2023/09/28 01:31:24;;;;;;;3.33;3.13;;;11.00;99.90;;;;;;5046443;28;20106;-34
2023/09/28 01:33:49;;;;;;;3.67;3.38;;;11.00;99.90;;;;;;5047844;28;20025;-29
2023/09/28 01:36:15;;;;;;;4.30;3.78;;;11.00;99.90;;;;;;5049445;28;20053;-33
2023/09/28 01:38:57;;;;;;;3.90;3.50;;;11.10;99.90;;;;;;5046750;28;20130;-33
2023/09/28 01:41:22;;;;;;;4.50;4.10;;;11.10;99.90;;;;;;5047138;28;20029;-34
2023/09/28 01:43:48;;;;;;;4.93;4.43;;;11.00;99.90;;;;;;5046268;28;20057;-31
2023/09/28 01:46:14;;;;;;;6.65;5.05;;;11.00;99.90;;;;;;5048029;28;20104;-34
2023/09/28 01:48:40;;;;;;;4.47;4.07;;;11.00;99.90;;;;;;5047342;28;20044;-31
2023/09/28 01:51:07;;;;;;;6.15;4.50;;;11.00;99.90;;;;;;5049435;28;20490;-31
2023/09/28 01:53:32;;;;;;;5.40;4.13;;;11.00;99.90;;;;;;5048350;28;20044;-30
2023/09/28 01:56:02;;;;;;;5.00;4.43;;;11.00;99.90;;;;;;5047585;28;20025;-41
2023/09/28 01:58:29;;;;;;;4.53;3.90;;;11.10;99.90;;;;;;5046622;28;20089;-41
2023/09/28 02:00:55;;;;;;;3.75;3.42;;;11.10;99.90;;;;;;5044854;28;20048;-40
2023/09/28 02:03:21;;;;;;;4.18;3.78;;;11.10;99.90;;;;;;5046526;28;20033;-38
2023/09/28 02:05:49;;;;;;;4.50;3.40;;;11.10;99.90;;;;;;5048910;28;20037;-41
2023/09/28 02:08:15;;;;;;;5.25;3.63;;;11.10;99.90;;;;;;5047576;28;20044;-40
2023/09/28 02:10:41;;;;;;;3.53;3.15;;;11.10;99.90;;;;;;5047895;28;20021;-41
2023/09/28 02:13:07;;;;;;;3.65;3.35;;;11.10;99.90;;;;;;5046611;28;20021;-41
2023/09/28 02:15:33;;;;;;;4.78;3.28;;;10.80;99.90;;;;;;5046763;28;20033;-41
2023/09/28 02:17:58;;;;;;;3.60;3.30;;;10.60;99.90;;;;;;5045894;28;20165;-41
2023/09/28 02:20:24;;;;;;;6.78;3.10;;;10.40;99.90;;;;;;5065021;28;20033;-40
2023/09/28 02:22:52;;;;;;;4.45;2.95;;;10.20;99.90;;;;;;5043522;28;20499;-41
2023/09/28 02:25:20;;;;;;;2.90;2.67;;;10.10;99.90;;;;;;5046093;28;20033;-39
2023/09/28 02:27:47;;;;;;;2.83;2.63;;;10.00;99.90;;;;;;5046397;28;21004;-36
2023/09/28 02:30:19;;;;;;;3.88;2.80;;;10.00;99.90;;;;;;5047171;28;20028;-40
2023/09/28 02:32:47;;;;;;;3.33;2.78;;;10.00;99.90;;;;;;5042474;28;20033;-39
2023/09/28 02:35:16;;;;;;;3.17;2.88;;;10.00;99.90;;;;;;5045740;28;20091;-39
2023/09/28 02:37:44;;;;;;;4.60;3.83;;;10.10;99.90;;;;;;5043664;28;20053;-38
2023/09/28 02:40:11;;;;;;;3.13;2.83;;;10.10;99.90;;;;;;5046730;28;20498;-35
2023/09/28 02:42:37;;;;;;;3.92;3.53;;;10.10;99.90;;;;;;5040066;28;20422;-39
2023/09/28 02:45:11;;;;;;;3.92;3.45;;;10.10;99.90;;;;;;5041840;28;20126;-35
2023/09/28 02:47:41;;;;;;;3.42;3.13;;;10.10;99.90;;;;;;5043653;28;20062;-40
2023/09/28 02:50:09;;;;;;;4.65;3.92;;;10.10;99.90;;;;;;5044291;28;20036;-35
2023/09/28 02:52:35;;;;;;;3.92;3.60;;;10.00;99.90;;;;;;5044164;28;20040;-38
2023/09/28 02:55:02;;;;;;;4.47;3.88;;;10.00;99.90;;;;;;5043916;28;20029;-39
2023/09/28 02:57:28;;;;;;;4.88;4.13;;;10.00;99.90;;;;;;5045131;28;20116;-40
2023/09/28 02:59:54;;;;;;;6.65;3.95;;;10.00;99.90;;;;;;5047002;28;20124;-40
2023/09/28 03:02:20;;;;;;;3.50;3.20;;;9.90;99.90;;;;;;5043019;28;20032;-40
2023/09/28 03:04:45;;;;;;;5.40;3.58;;;9.90;99.90;;;;;;5042118;28;20089;-34
2023/09/28 03:07:15;;;;;;;4.30;3.90;;;9.90;99.90;;;;;;5074162;28;20025;-32
2023/09/28 03:09:41;;;;;;;3.83;3.28;;;9.80;99.90;;;;;;5059032;28;20017;-33
2023/09/28 03:12:07;;;;;;;6.35;3.63;;;9.80;99.90;;;;;;5048010;28;20075;-32
2023/09/28 03:14:42;;;;;;;4.28;3.88;;;9.70;99.90;;;;;;5056336;28;20022;-33
2023/09/28 03:17:11;;;;;;;3.85;3.55;;;9.70;99.90;;;;;;5032325;28;20029;-32
2023/09/28 03:19:37;;;;;;;8.32;4.03;;;9.70;99.90;;;;;;5042980;28;20081;-33
2023/09/28 03:22:04;;;;;;;4.43;4.00;;;9.70;99.90;;;;;;5043639;28;20422;-32
2023/09/28 03:24:31;;;;;;;5.78;4.10;;;9.80;99.90;;;;;;5045124;28;20052;-31
2023/09/28 03:26:56;;;;;;;5.13;3.72;;;9.80;99.90;;;;;;5041722;28;20075;-31
2023/09/28 03:29:22;;;;;;;3.88;3.50;;;9.70;99.90;;;;;;5044343;28;20053;-34
2023/09/28 03:31:48;;;;;;;3.80;3.50;;;9.70;99.90;;;;;;5041772;28;20552;-33
2023/09/28 03:34:15;;;;;;;3.88;3.45;;;9.70;99.90;;;;;;5044007;28;20025;-33
2023/09/28 03:36:40;;;;;;;4.68;3.78;;;9.70;99.90;;;;;;5043263;28;20116;-40
2023/09/28 03:39:06;;;;;;;3.60;3.30;;;9.60;99.90;;;;;;5046105;28;20120;-39
2023/09/28 03:41:32;;;;;;;4.05;3.50;;;9.60;99.90;;;;;;5043496;28;20032;-36
2023/09/28 03:43:57;;;;;;;4.15;3.60;;;9.60;99.90;;;;;;5046733;28;20454;-36
2023/09/28 03:46:23;;;;;;;3.80;3.50;;;9.60;99.90;;;;;;5042247;28;20037;-39
2023/09/28 03:48:48;;;;;;;3.50;3.20;;;9.60;99.90;;;;;;5043569;28;20510;-38
2023/09/28 03:51:15;;;;;;;4.22;3.65;;;9.60;99.90;;;;;;5045674;28;20104;-37
2023/09/28 03:53:41;;;;;;;4.20;3.75;;;9.60;99.90;;;;;;5045517;28;20043;-39
2023/09/28 03:56:07;;;;;;;3.70;3.40;;;9.50;99.90;;;;;;5043849;28;20501;-39
2023/09/28 03:58:33;;;;;;;4.47;3.72;;;9.50;99.90;;;;;;5043476;28;20029;-39
2023/09/28 04:00:59;;;;;;;4.00;3.65;;;9.50;99.90;;;;;;5043025;28;20522;-39
2023/09/28 04:03:24;;;;;;;4.38;3.40;;;9.60;99.90;;;;;;5041460;28;20139;-39
2023/09/28 04:05:50;;;;;;;4.55;3.53;;;9.60;99.90;;;;;;5040956;28;20397;-39
2023/09/28 04:08:16;;;;;;;4.40;3.90;;;9.60;99.90;;;;;;5042700;28;20114;-39
2023/09/28 04:10:42;;;;;;;4.13;3.35;;;9.70;99.90;;;;;;5045506;28;20021;-40
2023/09/28 04:13:08;;;;;;;4.82;3.60;;;9.70;99.90;;;;;;5044860;28;20029;-40
2023/09/28 04:15:33;;;;;;;4.20;3.38;;;9.70;99.90;;;;;;5045480;28;20112;-35
2023/09/28 04:18:00;;;;;;;3.53;3.05;;;9.70;99.90;;;;;;5041374;28;20044;-41
2023/09/28 04:20:26;;;;;;;3.40;3.10;;;9.70;99.90;;;;;;5044129;28;20089;-40
2023/09/28 04:22:52;;;;;;;3.47;3.17;;;9.60;99.90;;;;;;5040277;28;20032;-41
2023/09/28 04:25:19;;;;;;;5.15;3.30;;;9.60;99.90;;;;;;5045572;28;20028;-41
2023/09/28 04:27:45;;;;;;;3.85;3.22;;;9.50;99.90;;;;;;5043779;28;20032;-38
2023/09/28 04:30:11;;;;;;;3.67;3.10;;;9.50;99.90;;;;;;5043080;28;20391;-35
2023/09/28 04:32:37;;;;;;;5.25;3.35;;;9.40;99.90;;;;;;5040198;28;20033;-35
2023/09/28 04:35:10;;;;;;;5.28;4.13;;;9.40;99.90;;;;;;5040794;28;20490;-41
2023/09/28 04:37:37;;;;;;;5.63;3.85;;;9.50;99.90;;;;;;5038638;28;20120;-37
2023/09/28 04:40:03;;;;;;;3.70;3.40;;;9.50;99.90;;;;;;5038512;28;20025;-41
2023/09/28 04:42:28;;;;;;;4.68;4.15;;;9.50;99.90;;;;;;5041235;28;20441;-41
2023/09/28 04:44:54;;;;;;;4.43;4.03;;;9.40;99.90;;;;;;5043303;28;20041;-41
2023/09/28 04:47:20;;;;;;;4.03;3.63;;;9.30;99.90;;;;;;5042071;28;20086;-41
2023/09/28 04:49:46;;;;;;;4.50;3.78;;;9.30;99.90;;;;;;5034322;28;20909;-40
2023/09/28 04:52:13;;;;;;;4.03;3.63;;;9.30;99.90;;;;;;5042527;28;20072;-37
2023/09/28 04:54:39;;;;;;;7.35;4.55;;;9.30;99.90;;;;;;5043352;28;20476;-38
2023/09/28 04:57:05;;;;;;;4.95;3.95;;;9.20;99.90;;;;;;5042907;28;20457;-38
2023/09/28 04:59:34;;;;;;;4.53;4.05;;;9.20;99.90;;;;;;5043396;28;20060;-40
2023/09/28 05:02:00;;;;;;;5.00;4.10;;;9.30;99.90;;;;;;5039726;28;20041;-40
2023/09/28 05:04:25;;;;;;;4.65;3.83;;;9.30;99.90;;;;;;5043737;28;20118;-37
2023/09/28 05:06:51;;;;;;;4.50;4.07;;;9.40;99.90;;;;;;5041650;28;20037;-37
2023/09/28 05:09:18;;;;;;;4.32;3.85;;;9.40;99.90;;;;;;5042983;28;20033;-40
2023/09/28 05:11:44;;;;;;;4.82;3.70;;;9.40;99.90;;;;;;5044333;28;20020;-41
2023/09/28 05:14:09;;;;;;;5.95;4.50;;;9.40;99.90;;;;;;5045481;28;20025;-40
2023/09/28 05:16:35;;;;;;;6.28;4.82;;;9.40;99.90;;;;;;5042874;28;20699;-33
2023/09/28 05:19:01;;;;;;;4.93;4.43;;;9.50;99.90;;;;;;5043450;28;20101;-40
2023/09/28 05:21:26;;;;;;;4.43;4.03;;;9.40;99.90;;;;;;5040620;28;20479;-40
2023/09/28 05:23:52;;;;;;;6.25;4.32;;;9.40;99.90;;;;;;5042456;28;20064;-38
2023/09/28 05:26:18;;;;;;;4.90;4.10;;;9.30;99.90;;;;;;5042308;28;20375;-32
2023/09/28 05:28:44;;;;;;;4.55;3.67;;;9.20;99.90;;;;;;5044110;28;20471;-30
2023/09/28 05:31:10;;;;;;;4.50;3.58;;;9.20;99.90;;;;;;5044049;28;20063;-37
2023/09/28 05:33:35;;;;;;;4.30;3.88;;;9.30;99.90;;;;;;5043906;28;20473;-31
2023/09/28 05:36:01;;;;;;;7.45;3.88;;;9.30;99.90;;;;;;5077744;28;20382;-30
2023/09/28 05:38:26;;;;;;;4.35;3.95;;;9.30;99.90;;;;;;5043608;28;20106;-32
2023/09/28 05:40:54;;;;;;;6.80;3.80;;;9.40;99.90;;;;;;5045061;28;20115;-32
2023/09/28 05:43:19;;;;;;;5.05;3.83;;;9.40;99.90;;;;;;5041986;28;20021;-30
2023/09/28 05:45:45;;;;;;;3.10;2.78;;;9.40;99.90;;;;;;5046690;28;20049;-30
2023/09/28 05:48:10;;;;;;;2.70;2.50;;;9.30;99.90;;;;;;5042618;28;20060;-32
2023/09/28 05:50:36;;;;;;;2.85;2.65;;;9.30;99.90;;;;;;5044968;28;20041;-33
2023/09/28 05:53:02;;;;;;;4.57;3.35;;;9.40;99.90;;;;;;5043015;28;20098;-30
2023/09/28 05:55:27;;;;;;;5.03;3.65;;;9.40;99.90;;;;;;5044835;28;20029;-30
2023/09/28 05:57:56;;;;;;;4.10;3.30;;;9.30;99.90;;;;;;5036600;28;20026;-33
2023/09/28 06:00:22;;;;;;;4.35;3.78;;;9.40;99.90;;;;;;5045167;28;20075;-32
2023/09/28 06:02:48;;;;;;;3.47;3.25;;;9.40;99.90;;;;;;5039584;28;20033;-32
2023/09/28 06:05:14;;;;;;;4.72;3.78;;;9.40;99.90;;;;;;5054033;28;20474;-35
2023/09/28 06:07:40;;;;;;;4.60;3.33;;;9.40;99.90;;;;;;5042247;28;20021;-33
2023/09/28 06:10:08;;;;;;;5.32;3.85;;;9.50;99.90;;;;;;5046064;28;20032;-33
2023/09/28 06:12:34;;;;;;;4.47;4.05;;;9.50;99.90;;;;;;5044426;28;20041;-33
2023/09/28 06:14:59;;;;;;;4.65;3.88;;;9.40;99.90;;;;;;5051607;28;20041;-33
2023/09/28 06:17:25;;;;;;;6.63;3.80;;;9.40;99.90;;;;;;5045953;28;20025;-34
2023/09/28 06:19:51;;;;;;;5.78;4.47;;;9.50;99.90;;;;;;5080744;28;20041;-33
2023/09/28 06:22:17;;;;;;;7.15;4.47;;;9.60;99.90;;;;;;5039126;28;20075;-32
2023/09/28 06:24:44;;;;;;;6.10;4.70;;;9.70;99.90;;;;;;5044993;28;20052;-32
2023/09/28 06:27:10;;;;;;;6.80;4.60;;;9.90;99.90;;;;;;5044591;28;20419;-36
2023/09/28 06:29:36;;;;;;;6.20;4.75;;;10.10;99.90;;;;;;5048118;28;20441;-33
2023/09/28 06:32:03;;;;;;;7.97;4.90;;;10.20;99.90;;;;;;5047058;28;20033;-32
2023/09/28 06:34:28;;;;;;;7.18;4.82;;;10.30;99.90;;;;;;5046330;28;20013;-32
2023/09/28 06:36:54;;;;;;;7.97;5.78;;;10.50;99.90;;;;;;5041133;28;20033;-34
2023/09/28 06:39:20;;;;;;;8.07;5.28;;;10.50;99.90;;;;;;5043439;28;20928;-32
2023/09/28 06:41:45;;;;;;;7.97;5.32;;;10.70;99.90;;;;;;5047163;28;20029;-32
2023/09/28 06:44:11;;;;;;;9.65;5.97;;;10.80;99.90;;;;;;5042973;28;20045;-37
2023/09/28 06:46:37;;;;;;;7.55;5.43;;;11.00;99.90;;;;;;5044604;28;20037;-35
2023/09/28 06:49:05;;;;;;;8.63;5.63;;;11.10;99.90;;;;;;5046812;28;20027;-33
2023/09/28 06:51:31;;;;;;;8.70;5.90;;;11.20;99.90;;;;;;5043690;28;20032;-32
2023/09/28 06:53:57;;;;;;;8.30;5.32;;;11.30;99.90;;;;;;5043807;28;20066;-32
2023/09/28 06:56:22;;;;;;;9.23;5.65;;;11.30;99.90;;;;;;5043028;28;20025;-33
2023/09/28 06:58:50;;;;;;;10.57;5.53;;;11.40;99.90;;;;;;5043704;28;20060;-32
2023/09/28 07:01:16;;;;;;;10.05;6.07;;;11.50;99.90;;;;;;5044258;28;20048;-37
2023/09/28 07:03:41;;;;;;;8.68;6.50;;;11.60;99.90;;;;;;5038369;28;20474;-32
2023/09/28 07:06:08;;;;;;;7.53;5.45;;;11.70;99.90;;;;;;5042713;28;20094;-32
2023/09/28 07:08:34;;;;;;;9.00;6.03;;;11.80;99.90;;;;;;5041148;28;20021;-36
2023/09/28 07:10:59;;;;;;;9.95;5.82;;;11.90;99.90;;;;;;5049679;28;20031;-32
2023/09/28 07:13:25;;;;;;;8.68;6.00;;;12.00;99.90;;;;;;5045269;28;20088;-33
2023/09/28 07:15:51;;;;;;;10.70;6.68;;;12.10;99.90;;;;;;5047790;28;20072;-29
2023/09/28 07:18:16;;;;;;;8.93;6.43;;;12.20;99.90;;;;;;5045618;28;20044;-30
2023/09/28 07:20:42;;;;;;;10.20;7.03;;;12.30;99.90;;;;;;5051651;28;20059;-31
2023/09/28 07:23:07;;;;;;;9.52;6.93;;;12.50;99.90;;;;;;5043386;28;20056;-32
2023/09/28 07:25:33;;;;;;;8.88;6.70;;;12.50;99.90;;;;;;5048723;28;20818;-34
2023/09/28 07:27:59;;;;;;;10.38;7.75;;;12.60;99.90;;;;;;5046166;28;20017;-32
2023/09/28 07:30:25;;;;;;;10.10;7.03;;;12.70;99.90;;;;;;5047036;28;20500;-31
2023/09/28 07:32:51;;;;;;;12.57;7.25;;;12.80;99.90;;;;;;5059224;28;20025;-31
2023/09/28 07:35:18;;;;;;;10.75;7.45;;;12.80;99.90;;;;;;5042352;28;20114;-35
2023/09/28 07:37:44;;;;;;;11.50;7.38;;;12.80;99.90;;;;;;5043945;28;20032;-34
2023/09/28 07:40:12;;;;;;;11.70;7.80;;;12.90;99.90;;;;;;5040411;28;20394;-36
2023/09/28 07:42:43;;;;;;;9.85;7.38;;;12.90;99.90;;;;;;5040308;28;20067;-32
2023/09/28 07:45:11;;;;;;;8.45;6.55;;;13.00;99.90;;;;;;5039704;28;20038;-30
2023/09/28 07:47:38;;;;;;;12.23;6.97;;;13.20;99.90;;;;;;5039465;28;20047;-34
2023/09/28 07:50:05;;;;;;;12.65;8.20;;;13.20;99.90;;;;;;5047015;28;20037;-34
2023/09/28 07:52:30;;;;;;;12.18;8.20;;;13.40;99.90;;;;;;5045116;28;20025;-32
2023/09/28 07:54:56;;;;;;;11.80;7.93;;;13.60;99.90;;;;;;5048873;28;20036;-35
2023/09/28 07:57:22;;;;;;;13.23;8.30;;;13.70;99.90;;;;;;5045177;28;20060;-33
2023/09/28 07:59:48;;;;;;;10.02;7.38;;;13.90;99.90;;;;;;5046170;28;20076;-32
2023/09/28 08:02:14;;;;;;;9.00;6.40;;;14.10;99.90;;;;;;5043026;28;20028;-33
2023/09/28 08:04:39;;;;;;;7.93;5.45;;;14.20;99.90;;;;;;5046370;28;20051;-33
2023/09/28 08:07:05;;;;;;;9.45;6.20;;;14.40;99.90;;;;;;5046494;28;20035;-33
2023/09/28 08:09:32;;;;;;;8.60;6.47;;;14.50;99.90;;;;;;5043045;28;20575;-34
2023/09/28 08:11:58;;;;;;;7.70;6.13;;;14.80;99.90;;;;;;5043601;28;20039;-33
2023/09/28 08:14:24;;;;;;;9.07;6.05;;;15.00;99.90;;;;;;5044160;28;20119;-35
2023/09/28 08:16:50;;;;;;;7.25;5.70;;;15.20;99.90;;;;;;5041182;28;20155;-33
2023/09/28 08:19:16;;;;;;;9.35;6.68;;;15.40;99.90;;;;;;5047481;28;20041;-37
2023/09/28 08:21:42;;;;;;;9.63;5.65;;;15.50;99.90;;;;;;5047064;28;20044;-36
2023/09/28 08:24:10;;;;;;;8.10;5.80;;;15.80;99.90;;;;;;5044476;28;20052;-33
2023/09/28 08:26:36;;;;;;;8.43;5.53;;;15.90;99.90;;;;;;5049319;28;20028;-35
2023/09/28 08:29:03;;;;;;;8.27;5.78;;;16.00;99.90;;;;;;5045559;28;20040;-38
2023/09/28 08:31:32;;;;;;;7.53;5.07;;;16.20;99.90;;;;;;5044376;28;20025;-40
2023/09/28 08:34:01;;;;;;;8.57;5.80;;;16.30;99.90;;;;;;5044150;28;20275;-40
2023/09/28 08:36:27;;;;;;;8.13;5.35;;;16.40;99.90;;;;;;5044958;28;20033;-39
2023/09/28 08:38:54;;;;;;;10.25;5.07;;;16.60;99.90;;;;;;5047497;28;20033;-34
2023/09/28 08:41:47;;;;;;;8.52;5.72;;;16.80;99.90;;;;;;5046144;28;20024;-40
2023/09/28 08:44:13;;;;;;;9.38;5.32;;;16.90;99.90;;;;;;5041833;28;20090;-38
2023/09/28 08:46:40;;;;;;;6.63;5.22;;;17.10;99.90;;;;;;5045893;28;20021;-39
2023/09/28 08:49:07;;;;;;;7.97;5.03;;;17.30;99.90;;;;;;5045213;28;20395;-40
2023/09/28 08:51:35;;;;;;;8.07;5.13;;;17.40;99.90;;;;;;5044600;28;20091;-35
2023/09/28 08:54:05;;;;;;;;;;;17.70;99.90;;;;;;5042336;28;20033;-40
2023/09/28 08:56:37;;;;;;;5.97;5.00;;;17.80;99.90;;;;;;5045087;28;19909;-31
2023/09/28 08:59:03;;;;;;;7.05;5.20;;;18.00;99.90;;;;;;5040133;28;20030;-30
2023/09/28 09:01:30;;;;;;;8.43;5.00;;;18.20;99.90;;;;;;5076734;28;20690;-34
2023/09/28 09:03:57;;;;;;;5.95;4.50;;;18.40;99.90;;;;;;5045816;28;20033;-30
2023/09/28 09:06:24;;;;;;;7.55;4.97;;;18.50;99.90;;;;;;5045837;28;20474;-30
2023/09/28 09:08:50;;;;;;;7.63;4.45;;;18.50;99.90;;;;;;5042206;28;20029;-29
2023/09/28 09:11:16;;;;;;;6.95;4.82;;;18.60;99.90;;;;;;5045465;28;20364;-32
2023/09/28 09:13:49;;;;;;;6.88;4.82;;;18.80;99.90;;;;;;5048739;28;20025;-30
2023/09/28 09:16:16;;;;;;;6.88;4.70;;;18.90;99.90;;;;;;5047100;28;20074;-33
2023/09/28 09:18:42;;;;;;;6.13;4.47;;;19.00;99.90;;;;;;5043350;28;20025;-33
2023/09/28 09:21:08;;;;;;;8.18;4.90;;;19.20;99.90;;;;;;5042058;28;20033;-33
2023/09/28 09:23:33;;;;;;;6.43;4.30;;;19.30;99.90;;;;;;5043438;28;20513;-36
2023/09/28 09:25:59;;;;;;;7.80;4.60;;;19.60;99.90;;;;;;5047051;28;20484;-30
2023/09/28 09:28:32;;;;;;;6.95;4.57;;;19.70;99.90;;;;;;5043624;28;20025;-30
2023/09/28 09:30:58;;;;;;;8.15;4.18;;;19.90;99.90;;;;;;5046673;28;20398;-30
2023/09/28 09:33:25;;;;;;;5.85;4.28;;;20.00;99.90;;;;;;5041568;28;20025;-30
2023/09/28 09:35:51;;;;;;;9.35;4.22;;;20.10;99.90;;;;;;5049262;28;20498;-32
2023/09/28 09:38:23;;;;;;;6.10;4.10;;;20.20;99.90;;;;;;5044778;28;20099;-33
2023/09/28 09:41:04;;;;;;;7.25;3.72;;;20.30;99.90;;;;;;5047092;28;20446;-33
2023/09/28 09:43:31;;;;;;;5.07;3.65;;;20.40;99.90;;;;;;5042283;28;20110;-32
2023/09/28 09:45:57;;;;;;;5.93;3.30;;;20.60;99.90;;;;;;5047598;28;20090;-32
2023/09/28 09:48:24;;;;;;;5.38;3.85;;;20.70;99.90;;;;;;5050135;28;20398;-35
2023/09/28 09:50:50;;;;;;;5.50;3.67;;;20.60;99.90;;;;;;5044066;28;20614;-34
2023/09/28 09:53:17;;;;;;;9.70;3.75;;;20.50;99.90;;;;;;5048090;28;20028;-32
2023/09/28 09:55:43;;;;;;;4.35;3.95;;;20.60;99.90;;;;;;5050251;28;20017;-32
2023/09/28 09:58:13;;;;;;;5.45;3.53;;;20.70;99.90;;;;;;5038968;28;20380;-34
2023/09/28 10:00:41;;;;;;;4.95;3.75;;;20.80;99.90;;;;;;5041568;28;20028;-32
2023/09/28 10:03:08;;;;;;;5.75;3.85;;;21.00;99.90;;;;;;5038165;28;20119;-33
2023/09/28 10:05:36;;;;;;;7.22;3.60;;;21.20;99.90;;;;;;5039233;28;20516;-37
2023/09/28 10:08:03;;;;;;;4.45;3.17;;;21.20;99.90;;;;;;5043943;28;20033;-38
2023/09/28 10:10:30;;;;;;;5.68;4.10;;;21.40;99.90;;;;;;5041990;28;20052;-41
2023/09/28 10:12:57;;;;;;;5.22;3.20;;;21.50;99.90;;;;;;5045574;28;20033;-40
2023/09/28 10:15:24;;;;;;;5.38;2.97;;;21.60;99.90;;;;;;5039554;28;20520;-40
2023/09/28 10:17:49;;;;;;;5.70;3.45;;;21.60;99.90;;;;;;5039963;28;20051;-39
2023/09/28 10:20:16;;;;;;;4.95;3.42;;;21.80;99.90;;;;;;5043424;28;20397;-40
2023/09/28 10:22:44;;;;;;;6.43;3.17;;;21.80;99.90;;;;;;5041563;28;20033;-37
2023/09/28 10:25:12;;;;;;;5.75;4.07;;;21.80;99.90;;;;;;5042422;28;20029;-37
2023/09/28 10:27:39;;;;;;;4.45;2.90;;;21.90;99.90;;;;;;5044316;28;20686;-38
2023/09/28 10:30:22;;;;;;;4.25;3.35;;;21.80;99.90;;;;;;5044627;28;20060;-41
2023/09/28 10:32:51;;;;;;;4.65;3.22;;;21.90;99.90;;;;;;5044404;28;20091;-41
2023/09/28 10:35:22;;;;;;;4.13;3.40;;;22.10;99.90;;;;;;5046718;28;20099;-38
2023/09/28 10:38:19;;;;;;;4.47;3.20;;;22.20;99.90;;;;;;5041618;28;20029;-41
2023/09/28 10:41:01;;;;;;;3.67;3.30;;;22.30;99.90;;;;;;5042311;28;20051;-38
2023/09/28 10:43:32;;;;;;;3.85;2.92;;;22.20;99.90;;;;;;5044031;28;20465;-37
2023/09/28 10:46:02;;;;;;;4.18;3.60;;;22.50;99.90;;;;;;5047052;28;20037;-40
2023/09/28 10:48:38;;;;;;;4.43;2.90;;;22.80;99.90;;;;;;5039282;28;20032;-39
2023/09/28 10:51:21;;;;;;;3.45;3.05;;;22.70;99.90;;;;;;5045770;28;20601;-38
2023/09/28 10:53:46;;;;;;;4.68;3.20;;;22.70;99.90;;;;;;5045658;28;20024;-39
2023/09/28 10:56:12;;;;;;;4.35;3.22;;;22.80;99.90;;;;;;5049349;28;20555;-34
2023/09/28 10:58:40;;;;;;;4.25;3.15;;;22.70;99.90;;;;;;5042925;28;20037;-39
2023/09/28 11:01:07;;;;;;;4.25;3.17;;;22.70;99.90;;;;;;5047124;28;20053;-39
2023/09/28 11:03:34;;;;;;;4.10;3.20;;;22.70;99.90;;;;;;5044235;28;20465;-39
2023/09/28 11:06:03;;;;;;;6.27;3.60;;;22.70;99.90;;;;;;5050440;28;20086;-36
2023/09/28 11:08:30;;;;;;;5.20;3.00;;;22.70;99.90;;;;;;5043909;28;20029;-39
2023/09/28 11:10:58;;;;;;;3.70;3.10;;;22.80;99.90;;;;;;5047552;28;20506;-36
2023/09/28 11:13:25;;;;;;;5.05;3.03;;;22.80;99.90;;;;;;5044252;28;20284;-40
2023/09/28 11:15:52;;;;;;;4.33;2.90;;;22.90;99.90;;;;;;5046147;28;20032;-30
2023/09/28 11:18:38;;;;;;;3.60;2.58;;;22.90;99.90;;;;;;5049909;28;20032;-33
2023/09/28 11:21:04;;;;;;;5.75;3.33;;;23.10;99.90;;;;;;5042073;28;20053;-30
2023/09/28 11:23:30;;;;;;;5.20;3.47;;;23.10;99.90;;;;;;5046058;28;20020;-30
2023/09/28 11:25:57;;;;;;;3.58;3.00;;;22.90;99.90;;;;;;5052622;28;20029;-30
2023/09/28 11:28:23;;;;;;;4.35;3.05;;;22.80;99.90;;;;;;5048186;28;20048;-34
2023/09/28 11:31:09;;;;;;;3.88;3.05;;;22.90;99.90;;;;;;5046216;28;20061;-30
2023/09/28 11:33:39;;;;;;;5.00;2.92;;;22.80;99.90;;;;;;5039935;28;20022;-31
2023/09/28 11:36:11;;;;;;;4.50;3.13;;;22.90;99.90;;;;;;5044246;28;20052;-30
2023/09/28 11:38:39;;;;;;;5.45;3.22;;;22.90;99.90;;;;;;5043728;28;20029;-32
2023/09/28 11:41:05;;;;;;;3.53;2.95;;;22.90;99.90;;;;;;5044104;28;20049;-30
2023/09/28 11:43:45;;;;;;;5.50;3.22;;;22.90;99.90;;;;;;5045595;28;20028;-34
2023/09/28 11:46:12;;;;;;;3.13;2.60;;;22.90;99.90;;;;;;5047500;28;20082;-31
2023/09/28 11:48:38;;;;;;;3.37;2.83;;;22.90;99.90;;;;;;5047411;28;20021;-32
2023/09/28 11:51:05;;;;;;;5.32;2.90;;;22.80;99.90;;;;;;5045527;28;20116;-30
2023/09/28 11:53:31;;;;;;;6.68;3.15;;;22.80;99.90;;;;;;5046311;28;20025;-34
2023/09/28 11:55:57;;;;;;;3.72;2.78;;;22.80;99.90;;;;;;5047377;28;20044;-38
2023/09/28 11:58:25;;;;;;;4.05;2.95;;;23.00;99.90;;;;;;5038462;28;20052;-39
2023/09/28 12:00:50;;;;;;;4.93;3.25;;;23.10;99.90;;;;;;5040987;28;20039;-41
2023/09/28 12:03:16;;;;;;;3.88;2.58;;;23.00;99.90;;;;;;5044925;28;20033;-39
2023/09/28 12:05:42;;;;;;;3.85;2.72;;;23.10;99.90;;;;;;5043674;28;20036;-33
2023/09/28 12:08:07;;;;;;;3.67;2.78;;;23.10;99.90;;;;;;5040870;28;20716;-39
2023/09/28 12:10:33;;;;;;;3.03;2.65;;;23.00;99.90;;;;;;5044699;28;20035;-40
2023/09/28 12:12:59;;;;;;;3.97;2.92;;;23.00;99.90;;;;;;5043762;28;20541;-40
2023/09/28 12:15:25;;;;;;;4.30;2.80;;;23.00;99.90;;;;;;5046236;28;20087;-38
2023/09/28 12:17:50;;;;;;;3.47;2.33;;;23.00;99.90;;;;;;5041358;28;20024;-45
2023/09/28 12:20:16;;;;;;;3.72;2.47;;;23.00;99.90;;;;;;5062775;28;20119;-40
2023/09/28 12:22:45;;;;;;;6.20;2.50;;;23.10;99.90;;;;;;5044285;28;20086;-39
2023/09/28 12:25:10;;;;;;;3.40;2.70;;;23.10;99.90;;;;;;5070615;28;20124;-40
2023/09/28 12:27:37;;;;;;;3.50;2.38;;;23.10;99.90;;;;;;5043232;28;20068;-38
2023/09/28 12:30:03;;;;;;;7.88;2.78;;;23.20;99.90;;;;;;5045242;28;20376;-38
2023/09/28 12:32:30;;;;;;;3.38;2.28;;;23.30;99.90;;;;;;5044206;28;20087;-38
2023/09/28 12:34:56;;;;;;;2.58;2.30;;;23.40;99.90;;;;;;5045909;28;20025;-39
2023/09/28 12:37:22;;;;;;;5.72;2.65;;;23.50;99.90;;;;;;5044853;28;20032;-40
2023/09/28 12:39:50;;;;;;;2.92;2.20;;;23.60;99.90;;;;;;5046127;28;20086;-40
2023/09/28 12:42:15;;;;;;;4.40;2.42;;;23.50;99.90;;;;;;5045944;28;20032;-40
2023/09/28 12:44:42;;;;;;;3.42;2.22;;;23.50;99.90;;;;;;5044794;28;20418;-38
2023/09/28 12:47:09;;;;;;;3.38;2.25;;;23.50;99.90;;;;;;5044587;28;20108;-40
2023/09/28 12:49:35;;;;;;;4.80;2.60;;;23.50;99.90;;;;;;5058966;28;20039;-37
2023/09/28 12:52:02;;;;;;;4.05;2.63;;;23.70;99.90;;;;;;5043945;28;20271;-40